Latest Weather Observations for Mount Crawford

IDS60901

Issued at 4:05 pm CST Tuesday 2 September 2014 (issued every 10 minutes, with the page automatically refreshed every 10 minutes)

About weather observations | Map of Adelaide area stations | Latest observations for Adelaide area | Other Formats
Station Details ID: 023878 Name: MT CRAWFORD AWS Lat: -34.73 Lon: 138.93 Height: 525.0 m
Data from the previous 72 hours. | See also: Recent months at Mount Crawford
Date/Time
CST
Tmp

°C
App
Tmp
°C
Dew
Point
°C
Rel
Hum
%
Delta-T

°C
Wind Press
QNH
hPa
Press
MSL
hPa
Rain
since
9 am
mm
Dir
 
Spd
km/h
Gust
km/h
Spd
kts
Gust
kts
02/04:00pm 10.3 5.6 5.3 71 2.3 S 19 28 10 15 1023.7 1023.6 0.4
02/03:30pm 10.6 5.7 4.9 68 2.6 S 20 30 11 16 1023.3 1023.1 0.4
02/03:00pm 10.6 5.5 4.3 65 2.9 S 20 28 11 15 1023.3 1023.1 0.4
02/02:30pm 9.5 5.3 5.7 77 1.8 S 17 30 9 16 1023.4 1023.2 0.4
02/02:00pm 8.6 3.0 5.4 80 1.5 S 24 32 13 17 1023.6 1023.5 0.4
02/01:30pm 10.5 6.4 6.3 75 2.0 SSE 17 22 9 12 1023.4 1023.2 0.2
02/01:00pm 9.7 5.1 5.5 75 2.0 SSE 19 26 10 14 1023.5 1023.3 0.2
02/12:30pm 7.8 3.2 6.3 90 0.7 S 20 32 11 17 1023.6 1023.5 0.2
02/12:00pm 9.3 4.7 6.4 82 1.4 S 20 28 11 15 1023.8 1023.7 0.2
02/11:30am 9.4 4.9 6.8 84 1.2 S 20 28 11 15 1023.7 1023.6 0.2
02/11:00am 7.2 1.2 5.5 89 0.8 S 26 43 14 23 1023.9 1023.8 0.0
02/10:30am 9.3 4.4 5.1 75 1.9 S 20 28 11 15 1023.6 1023.5 0.0
02/10:00am 8.4 3.5 5.3 81 1.4 S 20 30 11 16 1023.7 1023.6 0.0
02/09:30am 8.1 3.4 5.9 86 1.0 S 20 28 11 15 1023.5 1023.3 0.0
02/09:00am 7.5 2.9 5.5 87 0.9 SSW 19 30 10 16 1023.5 1023.3 6.4
02/08:30am 6.5 2.3 5.5 93 0.5 SSW 17 24 9 13 1023.4 1023.2 6.4
02/08:00am 5.5 1.1 4.9 96 0.3 WSW 17 30 9 16 1022.8 1022.7 6.4
02/07:30am 4.5 0.4 4.1 97 0.2 WSW 15 20 8 11 1022.4 1022.3 6.4
02/07:00am 4.2 -0.4 3.6 96 0.3 WSW 17 24 9 13 1021.9 1021.7 6.4
02/06:30am 4.3 -0.4 3.4 94 0.4 WSW 17 28 9 15 1021.5 1021.3 6.4
02/06:00am 4.3 -0.7 3.4 94 0.4 SW 19 28 10 15 1020.8 1020.7 6.4
02/05:30am 4.3 -0.3 3.6 95 0.3 SW 17 22 9 12 1020.4 1020.3 6.4
02/05:00am 4.2 -0.4 3.6 96 0.3 WSW 17 24 9 13 1020.0 1019.8 6.4
02/04:30am 4.2 -0.4 3.8 97 0.2 WSW 17 24 9 13 1019.6 1019.4 6.4
02/04:00am 4.3 -0.2 4.0 98 0.1 WSW 17 24 9 13 1019.3 1019.1 6.4
02/03:30am 4.2 -0.9 3.9 98 0.1 SW 20 28 11 15 1018.8 1018.7 6.4
02/03:00am 4.1 -0.9 3.8 98 0.1 WSW 19 28 10 15 1018.7 1018.6 6.4
02/02:30am 4.2 -0.3 4.1 99 0.0 WSW 17 26 9 14 1018.7 1018.6 6.4
02/02:00am 4.1 -0.4 4.0 99 0.0 SW 17 30 9 16 1018.6 1018.4 6.4
02/01:30am 3.8 -1.2 3.7 99 0.0 WSW 19 28 10 15 1018.5 1018.3 6.4
02/01:02am 4.3 -2.3 4.2 99 0.0 WSW 28 50 15 27 1018.2 1018.0 6.2
02/01:00am 4.4 -1.8 4.3 99 0.0 WSW 26 50 14 27 1018.2 1018.0 6.2
02/12:30am 4.6 -1.2 4.5 99 0.0 WSW 24 41 13 22 1018.1 1017.9 5.8
02/12:00am 4.6 0.2 4.5 99 0.0 WSW 17 24 9 13 1018.1 1017.9 5.4
 
Date/Time
CST
Tmp

°C
App
Tmp
°C
Dew
Point
°C
Rel
Hum
%
Delta-T

°C
Wind Press
QNH
hPa
Press
MSL
hPa
Rain
since
9 am
mm
Dir
 
Spd
km/h
Gust
km/h
Spd
kts
Gust
kts
01/11:30pm 4.5 -0.3 4.4 99 0.0 WSW 19 24 10 13 1018.1 1017.9 5.4
01/11:00pm 5.0 -0.3 4.9 99 0.0 SW 22 35 12 19 1018.1 1017.9 5.0
01/10:30pm 5.3 0.4 5.2 99 0.0 WSW 20 32 11 17 1017.7 1017.5 4.2
01/10:00pm 4.9 -0.1 4.8 99 0.0 WSW 20 30 11 16 1017.3 1017.1 4.2
01/09:30pm 5.0 0.2 4.9 99 0.0 WSW 19 30 10 16 1017.1 1016.9 4.2
01/09:00pm 4.8 0.4 4.7 99 0.0 WSW 17 26 9 14 1016.9 1016.7 4.2
01/08:30pm 5.0 -1.1 4.9 99 0.0 WSW 26 41 14 22 1016.5 1016.3 3.2
01/08:07pm 6.0 -0.3 5.9 99 0.0 W 28 46 15 25 1015.8 1015.6 2.8
01/08:00pm 6.2 0.7 6.1 99 0.0 W 24 33 13 18 1015.7 1015.5 2.8
01/07:30pm 5.7 0.9 5.6 99 0.0 W 20 28 11 15 1015.8 1015.6 2.8
01/07:00pm 5.5 1.2 5.4 99 0.0 W 17 22 9 12 1015.5 1015.3 2.8
01/06:30pm 6.0 0.5 5.9 99 0.0 WSW 24 37 13 20 1014.9 1014.7 2.6
01/06:18pm 6.2 0.0 6.1 99 0.0 W 28 50 15 27 1014.8 1014.6 2.0
01/06:00pm 6.9 1.8 6.0 94 0.4 W 22 33 12 18 1014.8 1014.6 0.8
01/05:30pm 8.4 2.1 3.5 71 2.2 W 26 41 14 22 1014.4 1014.2 0.4
01/05:00pm 9.4 4.2 3.6 67 2.6 W 20 32 11 17 1014.0 1013.8 0.4
01/04:30pm 9.6 3.0 2.0 59 3.3 W 26 35 14 19 1013.7 1013.4 0.4
01/04:00pm 10.7 3.9 3.0 59 3.4 WSW 28 41 15 22 1013.4 1013.1 0.4
01/03:30pm 11.1 4.5 1.9 53 4.0 WSW 26 37 14 20 1013.3 1013.0 0.4
01/03:00pm 11.2 5.7 4.2 62 3.2 WSW 22 35 12 19 1013.2 1012.9 0.4
01/02:30pm 10.9 3.4 3.2 59 3.5 WSW 32 52 17 28 1012.7 1012.5 0.4
01/02:00pm 9.5 2.5 4.1 69 2.5 WSW 30 48 16 26 1012.5 1012.3 0.4
01/01:32pm 9.5 3.1 5.3 75 2.0 WSW 28 50 15 27 1012.6 1012.4 0.4
01/01:30pm 9.5 3.1 5.3 75 2.0 WSW 28 44 15 24 1012.5 1012.3 0.4
01/01:05pm 9.2 2.8 5.4 77 1.8 WSW 28 46 15 25 1012.7 1012.5 0.4
01/01:00pm 9.3 3.0 5.5 77 1.8 WSW 28 43 15 23 1012.8 1012.6 0.4
01/12:30pm 10.0 4.6 7.9 87 1.0 WSW 26 43 14 23 1012.9 1012.7 0.4
01/12:00pm 8.8 4.7 8.8 100 0.0 WSW 20 30 11 16 1013.1 1012.8 0.4
01/11:30am 8.7 4.8 8.7 100 0.0 W 19 28 10 15 1012.9 1012.7 0.4
01/11:00am 8.1 3.5 8.1 100 0.0 W 22 33 12 18 1013.1 1012.8 0.4
01/10:30am 8.2 4.6 8.2 100 0.0 W 17 24 9 13 1013.1 1012.8 0.4
01/10:00am 8.2 4.6 8.2 100 0.0 W 17 22 9 12 1013.1 1012.8 0.4
01/09:30am 7.7 3.6 7.7 100 0.0 WSW 19 30 10 16 1012.8 1012.6 0.2
01/09:00am 8.0 3.7 8.0 100 0.0 WSW 20 43 11 23 1012.6 1012.8 5.4
01/08:30am 8.0 3.7 8.0 100 0.0 WSW 20 28 11 15 1012.2 1012.4 4.8
01/08:00am 8.7 4.6 8.7 100 0.0 W 20 26 11 14 1012.0 1012.2 4.0
01/07:30am 8.7 4.6 8.7 100 0.0 W 20 30 11 16 1011.8 1012.0 2.8
01/07:00am 8.6 4.7 8.6 100 0.0 W 19 24 10 13 1011.5 1011.7 2.8
01/06:30am 8.5 4.6 8.5 100 0.0 W 19 26 10 14 1011.3 1011.5 2.4
01/06:00am 8.4 5.2 8.4 100 0.0 W 15 24 8 13 1011.2 1011.4 2.4
01/05:30am 8.3 5.4 8.3 100 0.0 W 13 17 7 9 1011.1 1011.2 2.4
01/05:00am 8.1 6.0 8.1 100 0.0 W 9 13 5 7 1011.1 1011.2 2.4
01/04:30am 8.4 5.2 8.4 100 0.0 W 15 30 8 16 1010.7 1010.9 2.4
01/04:00am 8.4 5.6 8.4 100 0.0 W 13 19 7 10 1010.2 1010.4 1.6
01/03:30am 8.4 4.8 8.4 100 0.0 WSW 17 28 9 15 1010.2 1010.4 1.4
01/03:00am 8.3 4.1 8.3 100 0.0 WSW 20 32 11 17 1010.2 1010.4 0.8
01/02:30am 8.6 4.5 8.6 100 0.0 W 20 35 11 19 1010.6 1010.8 0.2
01/02:00am 9.1 4.7 9.1 100 0.0 W 22 39 12 21 1010.3 1010.5 0.0
01/01:30am 9.9 5.4 9.9 100 0.0 W 24 37 13 20 1010.5 1010.7 0.0
01/01:00am 10.2 6.5 10.0 99 0.1 W 20 28 11 15 1010.4 1010.6 0.0
01/12:30am 10.6 7.0 10.4 99 0.1 W 20 30 11 16 1010.9 1011.1 0.0
01/12:00am 10.5 7.4 10.3 99 0.1 W 17 26 9 14 1010.8 1011.0 0.0
 
Date/Time
CST
Tmp

°C
App
Tmp
°C
Dew
Point
°C
Rel
Hum
%
Delta-T

°C
Wind Press
QNH
hPa
Press
MSL
hPa
Rain
since
9 am
mm
Dir
 
Spd
km/h
Gust
km/h
Spd
kts
Gust
kts
31/11:30pm 10.5 7.3 10.0 97 0.3 WSW 17 24 9 13 1010.6 1010.8 0.0
31/11:00pm 10.6 6.7 8.5 87 1.1 WSW 19 28 10 15 1010.5 1010.7 0.0
31/10:30pm 11.3 6.5 4.5 63 3.2 WSW 19 26 10 14 1010.7 1010.9 0.0
31/10:00pm 11.7 7.6 4.4 61 3.4 W 15 20 8 11 1010.5 1010.7 0.0
31/09:30pm 12.7 7.6 4.2 56 4.0 W 20 26 11 14 1010.9 1011.1 0.0
31/09:00pm 14.7 10.1 3.8 48 5.1 NW 17 22 9 12 1010.4 1010.6 0.0
31/08:30pm 14.7 10.6 4.4 50 4.9 NNW 15 17 8 9 1010.7 1010.9 0.0
31/08:00pm 15.2 10.1 4.3 48 5.2 WNW 20 30 11 16 1011.5 1011.7 0.0
31/07:30pm 15.8 9.8 3.6 44 5.8 WNW 24 35 13 19 1011.4 1011.6 0.0
31/07:00pm 16.4 9.6 3.1 41 6.3 N 28 41 15 22 1011.1 1011.2 0.0
31/06:30pm 16.5 11.2 3.2 41 6.3 N 20 30 11 16 1011.3 1011.5 0.0
31/06:00pm 16.3 10.9 4.4 45 5.7 N 22 33 12 18 1011.6 1011.8 0.0
31/05:30pm 16.6 11.5 4.3 44 5.9 N 20 28 11 15 1011.5 1011.7 0.0
31/05:00pm 16.9 12.0 3.9 42 6.2 N 19 26 10 14 1011.4 1011.6 0.0
31/04:30pm 16.9 11.9 4.6 44 6.0 NNE 20 30 11 16 1010.7 1010.9 0.0
31/04:00pm 17.2 11.0 4.5 43 6.2 N 26 39 14 21 1011.3 1011.5 0.0
31/03:30pm 17.1 11.6 4.1 42 6.3 N 22 35 12 19 1011.6 1011.8 0.0
31/03:00pm 16.9 11.5 4.3 43 6.1 N 22 33 12 18 1012.0 1012.2 0.0
31/02:30pm 17.0 10.7 3.7 41 6.4 N 26 41 14 22 1012.6 1012.8 0.0
31/02:00pm 17.6 12.5 3.9 40 6.6 NNW 20 32 11 17 1012.8 1013.1 0.0
31/01:30pm 17.3 10.9 3.2 39 6.7 NW 26 43 14 23 1013.6 1013.8 0.0
31/01:00pm 17.7 11.7 3.2 38 6.9 N 24 28 13 15 1013.8 1014.0 0.0
31/12:30pm 17.9 11.0 2.6 36 7.2 NW 28 41 15 22 1014.4 1014.7 0.0
31/12:00pm 17.4 10.7 3.7 40 6.6 NW 28 43 15 23 1014.9 1015.2 0.0
31/11:36am 16.7 10.0 3.7 42 6.2 NW 28 46 15 25 1015.2 1015.4 0.0
31/11:30am 17.1 10.4 3.4 40 6.5 NW 28 41 15 22 1015.1 1015.3 0.0
31/11:18am 16.6 9.6 1.9 37 6.8 NW 28 46 15 25 1015.1 1015.3 0.0
31/11:00am 16.2 8.9 2.6 40 6.3 NW 30 44 16 24 1015.5 1015.7 0.0
31/10:30am 15.4 7.7 0.0 35 6.7 NW 30 46 16 25 1016.0 1016.2 0.0
31/10:00am 15.0 7.4 0.4 37 6.4 NNW 30 41 16 22 1015.8 1016.0 0.0
31/09:30am 15.2 7.5 0.2 36 6.6 NNW 30 43 16 23 1015.9 1016.1 0.0
31/09:00am 14.5 7.8 -0.8 35 6.5 NNW 24 35 13 19 1016.2 1016.5 0.0
31/08:30am 14.6 7.6 -0.7 35 6.5 NNW 26 35 14 19 1016.2 1016.5 0.0
31/08:00am 14.5 7.5 -0.4 36 6.4 NNW 26 37 14 20 1016.3 1016.6 0.0
31/07:30am 14.2 7.5 -1.4 34 6.5 NNW 24 32 13 17 1016.2 1016.5 0.0
31/07:00am 14.5 7.4 -1.6 33 6.7 NNW 26 37 14 20 1016.4 1016.7 0.0
31/06:30am 14.1 7.3 -1.5 34 6.5 NNW 24 35 13 19 1016.2 1016.5 0.0
31/06:00am 14.1 7.3 -1.5 34 6.5 NNW 24 39 13 21 1015.9 1016.1 0.0
31/05:30am 14.3 6.8 -1.7 33 6.7 NNW 28 39 15 21 1015.9 1016.1 0.0
31/05:00am 14.4 7.3 -1.6 33 6.7 N 26 41 14 22 1015.8 1016.0 0.0
31/04:30am 14.4 7.3 -1.6 33 6.7 N 26 35 14 19 1015.8 1016.0 0.0
31/04:00am 14.3 7.5 -1.7 33 6.7 N 24 33 13 18 1016.0 1016.2 0.0
31/03:30am 13.8 7.1 -1.0 36 6.2 N 24 32 13 17 1016.1 1016.4 0.0
31/03:00am 14.3 8.3 -1.3 34 6.6 NNW 20 28 11 15 1016.3 1016.6 0.0
31/02:30am 14.6 8.7 -1.1 34 6.6 N 20 28 11 15 1016.7 1017.0 0.0
31/02:00am 14.6 8.3 -0.7 35 6.5 N 22 30 12 16 1017.1 1017.3 0.0
31/01:30am 14.9 8.7 -0.4 35 6.6 N 22 30 12 16 1017.4 1017.6 0.0
31/01:00am 15.3 9.6 0.3 36 6.6 N 20 26 11 14 1017.6 1017.8 0.0
31/12:30am 15.4 9.7 0.8 37 6.5 N 20 24 11 13 1017.9 1018.2 0.0
31/12:00am 15.6 10.2 1.0 37 6.5 N 19 22 10 12 1018.2 1018.5 0.0
 
Date/Time
CST
Tmp

°C
App
Tmp
°C
Dew
Point
°C
Rel
Hum
%
Delta-T

°C
Wind Press
QNH
hPa
Press
MSL
hPa
Rain
since
9 am
mm
Dir
 
Spd
km/h
Gust
km/h
Spd
kts
Gust
kts
30/11:30pm 15.3 10.0 1.8 40 6.1 N 19 22 10 12 1018.3 1018.6 0.0
30/11:00pm 15.4 10.5 1.9 40 6.1 N 17 22 9 12 1018.7 1019.0 0.0
30/10:30pm 15.1 10.2 2.3 42 5.8 N 17 20 9 11 1019.0 1019.3 0.0
30/10:00pm 16.0 11.5 2.4 40 6.3 N 15 19 8 10 1019.3 1019.6 0.0
30/09:30pm 15.6 11.6 2.7 42 6.0 N 13 15 7 8 1019.6 1019.9 0.0
30/09:00pm 16.1 12.1 2.9 41 6.1 N 13 15 7 8 1019.8 1020.1 0.0
30/08:30pm 16.4 12.8 2.8 40 6.3 N 11 13 6 7 1019.9 1020.2 0.0
30/08:00pm 16.2 12.6 2.9 41 6.2 N 11 11 6 6 1020.0 1020.3 0.0
30/07:30pm 16.5 12.9 3.2 41 6.3 NNW 11 13 6 7 1020.0 1020.3 0.0
30/07:00pm 16.3 12.5 4.0 44 5.9 NW 13 17 7 9 1020.0 1020.3 0.0
30/06:30pm 16.5 12.1 4.5 45 5.8 WNW 17 20 9 11 1020.0 1020.3 0.0
30/06:00pm 16.8 12.8 4.8 45 5.8 WNW 15 17 8 9 1019.9 1020.2 0.0
30/05:30pm 17.1 13.4 4.4 43 6.1 NW 13 17 7 9 1019.7 1020.0 0.0
30/05:00pm 18.1 14.1 4.7 41 6.6 NW 15 20 8 11 1019.6 1019.9 0.0
30/04:30pm 18.6 14.8 5.8 43 6.4 NW 15 19 8 10 1019.9 1020.2 0.0

Latest Capital City Observations: Canberra | Sydney | Melbourne | Brisbane | Adelaide | Perth | Hobart | Darwin

Other Formats:

Comma delimited format used in spreadsheet applications
http://www.bom.gov.au/fwo/IDS60901/IDS60901.94678.axf

JavaScript Object Notation format (JSON) in row-major order
http://www.bom.gov.au/fwo/IDS60901/IDS60901.94678.json